createdAt,value
2023-09-24T00:00:27.500Z,17.98
2023-09-24T00:03:16.524Z,17.98
2023-09-24T00:05:48.389Z,17.98
2023-09-24T00:08:16.863Z,17.98
2023-09-24T00:10:51.990Z,17.99
2023-09-24T00:13:21.059Z,18.01
2023-09-24T00:15:51.003Z,18.02
2023-09-24T00:18:21.221Z,18.01
2023-09-24T00:20:51.319Z,18.01
2023-09-24T00:23:19.799Z,18.01
2023-09-24T00:25:51.043Z,18.03
2023-09-24T00:28:19.817Z,18.03
2023-09-24T00:30:49.330Z,18.04
2023-09-24T00:33:18.613Z,18.03
2023-09-24T00:35:48.194Z,18.02
2023-09-24T00:38:19.563Z,18.02
2023-09-24T00:40:48.572Z,18.03
2023-09-24T00:43:31.716Z,18.03
2023-09-24T00:46:09.097Z,18.00
2023-09-24T00:48:38.623Z,17.99
2023-09-24T00:51:17.957Z,17.97
2023-09-24T00:53:48.298Z,17.96
2023-09-24T00:56:16.832Z,17.95
2023-09-24T00:58:48.280Z,17.94
2023-09-24T01:01:16.799Z,17.93
2023-09-24T01:03:48.805Z,17.92
2023-09-24T01:06:20.809Z,17.88
2023-09-24T01:08:52.741Z,17.84
2023-09-24T01:11:22.217Z,17.81
2023-09-24T01:13:50.750Z,17.78
2023-09-24T01:16:19.244Z,17.75
2023-09-24T01:18:48.162Z,17.73
2023-09-24T01:21:19.192Z,17.67
2023-09-24T01:23:50.547Z,17.62
2023-09-24T01:26:20.860Z,17.58
2023-09-24T01:28:49.673Z,17.53
2023-09-24T01:31:20.312Z,17.48
2023-09-24T01:33:50.326Z,17.39
2023-09-24T01:36:21.461Z,17.31
2023-09-24T01:38:49.809Z,17.27
2023-09-24T01:41:20.943Z,17.24
2023-09-24T01:43:50.121Z,17.21
2023-09-24T01:46:22.039Z,17.20
2023-09-24T01:48:51.584Z,17.18
2023-09-24T01:51:21.572Z,17.17
2023-09-24T01:53:50.405Z,17.16
2023-09-24T01:56:19.986Z,17.13
2023-09-24T01:58:50.961Z,17.11
2023-09-24T02:01:19.423Z,17.11
2023-09-24T02:03:48.372Z,17.09
2023-09-24T02:06:17.259Z,17.07
2023-09-24T02:08:45.763Z,17.08
2023-09-24T02:11:16.063Z,17.09
2023-09-24T02:13:45.337Z,17.09
2023-09-24T02:16:14.416Z,17.08
2023-09-24T02:18:43.174Z,17.05
2023-09-24T02:21:16.163Z,17.04
2023-09-24T02:23:44.684Z,17.00
2023-09-24T02:26:14.707Z,16.98
2023-09-24T02:28:44.509Z,16.95
2023-09-24T02:31:14.329Z,16.94
2023-09-24T02:33:42.987Z,16.92
2023-09-24T02:36:12.529Z,16.92
2023-09-24T02:38:41.002Z,16.91
2023-09-24T02:41:09.488Z,16.90
2023-09-24T02:43:38.604Z,16.86
2023-09-24T02:46:07.168Z,16.81
2023-09-24T02:48:37.380Z,16.76
2023-09-24T02:51:13.093Z,16.74
2023-09-24T02:53:43.558Z,16.73
2023-09-24T02:56:13.947Z,16.74
2023-09-24T02:58:42.356Z,16.75
2023-09-24T03:01:17.518Z,16.76
2023-09-24T03:03:46.518Z,16.77
2023-09-24T03:06:15.234Z,16.77
2023-09-24T03:08:43.980Z,16.77
2023-09-24T03:11:16.059Z,16.77
2023-09-24T03:13:45.886Z,16.74
2023-09-24T03:16:14.763Z,16.73
2023-09-24T03:18:43.399Z,16.72
2023-09-24T03:21:14.986Z,16.69
2023-09-24T03:23:43.580Z,16.68
2023-09-24T03:26:16.537Z,16.66
2023-09-24T03:28:45.278Z,16.66
2023-09-24T03:31:15.827Z,16.65
2023-09-24T03:33:44.669Z,16.62
2023-09-24T03:36:13.300Z,16.61
2023-09-24T03:38:41.811Z,16.59
2023-09-24T03:41:10.777Z,16.55
2023-09-24T03:43:39.485Z,16.50
2023-09-24T03:46:10.495Z,16.48
2023-09-24T03:48:39.173Z,16.46
2023-09-24T03:51:11.820Z,16.45
2023-09-24T03:53:40.385Z,16.43
2023-09-24T03:56:09.317Z,16.44
2023-09-24T03:58:38.448Z,16.44
2023-09-24T04:01:10.926Z,16.44
2023-09-24T04:03:40.168Z,16.43
2023-09-24T04:06:12.724Z,16.45
2023-09-24T04:08:42.363Z,16.44
2023-09-24T04:11:14.276Z,16.45
2023-09-24T04:13:43.106Z,16.43
2023-09-24T04:16:13.676Z,16.41
2023-09-24T04:18:43.003Z,16.39
2023-09-24T04:21:17.014Z,16.36
2023-09-24T04:23:46.362Z,16.34
2023-09-24T04:26:21.737Z,16.33
2023-09-24T04:28:52.397Z,16.32
2023-09-24T04:31:20.665Z,16.32
2023-09-24T04:33:50.393Z,16.31
2023-09-24T04:36:19.382Z,16.29
2023-09-24T04:38:48.612Z,16.30
2023-09-24T04:41:17.045Z,16.30
2023-09-24T04:43:46.946Z,16.29
2023-09-24T04:46:15.718Z,16.28
2023-09-24T04:48:44.734Z,16.29
2023-09-24T04:51:13.427Z,16.27
2023-09-24T04:53:41.958Z,16.30
2023-09-24T04:56:10.522Z,16.32
2023-09-24T04:58:39.397Z,16.36
2023-09-24T05:01:09.308Z,16.41
2023-09-24T05:03:42.698Z,16.46
2023-09-24T05:06:12.673Z,16.51
2023-09-24T05:08:41.619Z,16.57
2023-09-24T05:11:14.247Z,16.66
2023-09-24T05:13:42.714Z,16.74
2023-09-24T05:16:11.262Z,16.81
2023-09-24T05:18:39.979Z,16.89
2023-09-24T05:21:19.264Z,16.98
2023-09-24T05:23:48.033Z,17.05
2023-09-24T05:26:16.887Z,17.13
2023-09-24T05:28:45.337Z,17.26
2023-09-24T05:31:15.389Z,17.38
2023-09-24T05:33:48.587Z,17.47
2023-09-24T05:36:17.418Z,17.56
2023-09-24T05:38:46.218Z,17.63
2023-09-24T05:41:14.618Z,17.68
2023-09-24T05:43:46.312Z,17.78
2023-09-24T05:46:15.777Z,17.91
2023-09-24T05:48:44.878Z,18.04
2023-09-24T05:51:13.289Z,18.18
2023-09-24T05:53:41.682Z,18.33
2023-09-24T05:56:10.128Z,18.48
2023-09-24T05:58:39.223Z,18.62
2023-09-24T06:01:07.718Z,18.81
2023-09-24T06:03:36.372Z,18.98
2023-09-24T06:06:10.381Z,19.14
2023-09-24T06:08:39.481Z,19.28
2023-09-24T06:11:10.520Z,19.41
2023-09-24T06:13:39.705Z,19.54
2023-09-24T06:16:08.394Z,19.70
2023-09-24T06:18:38.605Z,19.86
2023-09-24T06:21:10.592Z,20.03
2023-09-24T06:23:38.863Z,20.22
2023-09-24T06:26:07.343Z,20.38
2023-09-24T06:28:35.798Z,20.56
2023-09-24T06:31:05.694Z,20.78
2023-09-24T06:33:34.313Z,21.03
2023-09-24T06:36:04.488Z,21.27
2023-09-24T06:38:34.489Z,21.51
2023-09-24T06:41:04.956Z,21.77
2023-09-24T06:43:34.637Z,22.02
2023-09-24T06:46:13.259Z,22.23
2023-09-24T06:48:41.843Z,22.40
2023-09-24T06:51:11.330Z,22.60
2023-09-24T06:53:41.054Z,22.80
2023-09-24T06:56:09.859Z,22.93
2023-09-24T06:58:38.375Z,23.05
2023-09-24T07:01:07.643Z,23.26
2023-09-24T07:03:36.412Z,23.46
2023-09-24T07:06:06.755Z,23.65
2023-09-24T07:08:36.701Z,23.85
2023-09-24T07:11:25.733Z,24.05
2023-09-24T07:13:54.306Z,24.30
2023-09-24T07:16:24.546Z,24.53
2023-09-24T07:18:54.605Z,24.72
2023-09-24T07:21:35.432Z,24.90
2023-09-24T07:24:06.423Z,25.08
2023-09-24T07:26:35.416Z,25.19
2023-09-24T07:29:04.529Z,25.34
2023-09-24T07:31:34.278Z,25.40
2023-09-24T07:34:03.820Z,25.52
2023-09-24T07:36:44.875Z,25.60
2023-09-24T07:39:17.730Z,25.71
2023-09-24T07:41:46.698Z,25.78
2023-09-24T07:44:15.118Z,25.73
2023-09-24T07:46:43.554Z,25.78
2023-09-24T07:49:12.481Z,25.85
2023-09-24T07:51:40.902Z,25.90
2023-09-24T07:54:09.637Z,25.94
2023-09-24T07:56:43.268Z,26.05
2023-09-24T07:59:12.277Z,26.22
2023-09-24T08:01:40.725Z,26.38
2023-09-24T08:04:10.216Z,26.51
2023-09-24T08:06:38.860Z,26.63
2023-09-24T08:09:23.160Z,26.70
2023-09-24T08:11:56.729Z,26.80
2023-09-24T08:14:26.443Z,26.95
2023-09-24T08:16:55.459Z,27.11
2023-09-24T08:19:24.016Z,27.37
2023-09-24T08:21:52.517Z,27.62
2023-09-24T08:24:20.954Z,27.73
2023-09-24T08:26:50.169Z,27.74
2023-09-24T08:29:18.690Z,27.68
2023-09-24T08:31:47.557Z,27.71
2023-09-24T08:34:17.273Z,27.78
2023-09-24T08:36:45.744Z,27.99
2023-09-24T08:39:15.745Z,28.28
2023-09-24T08:41:45.928Z,28.56
2023-09-24T08:44:18.894Z,28.73
2023-09-24T08:46:49.795Z,28.65
2023-09-24T08:49:19.579Z,28.46
2023-09-24T08:51:48.316Z,28.39
2023-09-24T08:54:16.811Z,28.44
2023-09-24T08:56:45.356Z,28.51
2023-09-24T08:59:14.053Z,28.77
2023-09-24T09:01:42.593Z,28.97
2023-09-24T09:04:11.235Z,29.27
2023-09-24T09:06:39.883Z,29.46
2023-09-24T09:09:08.509Z,29.53
2023-09-24T09:11:42.058Z,29.58
2023-09-24T09:14:11.706Z,29.68
2023-09-24T09:16:59.760Z,29.74
2023-09-24T09:19:29.793Z,29.72
2023-09-24T09:22:25.486Z,29.74
2023-09-24T09:25:08.588Z,29.83
2023-09-24T09:27:44.545Z,30.08
2023-09-24T09:30:21.213Z,30.35
2023-09-24T09:32:49.911Z,30.56
2023-09-24T09:35:18.453Z,30.74
2023-09-24T09:37:48.629Z,30.83
2023-09-24T09:40:19.726Z,30.96
2023-09-24T09:42:51.946Z,31.02
2023-09-24T09:45:20.853Z,31.01
2023-09-24T09:48:04.972Z,30.99
2023-09-24T09:50:37.083Z,30.98
2023-09-24T09:53:09.309Z,30.83
2023-09-24T09:55:44.160Z,30.66
2023-09-24T09:58:22.129Z,30.58
2023-09-24T10:00:54.472Z,30.59
2023-09-24T10:03:24.900Z,30.48
2023-09-24T10:05:55.180Z,30.36
2023-09-24T10:08:40.716Z,30.30
2023-09-24T10:11:32.936Z,30.15
2023-09-24T10:14:04.579Z,29.70
2023-09-24T10:16:37.490Z,29.25
2023-09-24T10:19:15.504Z,28.92
2023-09-24T10:21:46.208Z,28.63
2023-09-24T10:24:14.784Z,28.41
2023-09-24T10:26:55.902Z,28.14
2023-09-24T10:29:46.383Z,27.82
2023-09-24T10:32:15.926Z,27.47
2023-09-24T10:35:09.723Z,27.24
2023-09-24T10:37:58.348Z,27.03
2023-09-24T10:40:28.405Z,26.92
2023-09-24T10:43:14.569Z,26.74
2023-09-24T10:45:44.762Z,26.61
2023-09-24T10:48:13.366Z,26.46
2023-09-24T10:50:42.729Z,26.36
2023-09-24T10:53:12.156Z,26.27
2023-09-24T10:55:43.983Z,26.16
2023-09-24T10:58:16.080Z,25.98
2023-09-24T11:00:52.218Z,25.95
2023-09-24T11:03:20.833Z,25.98
2023-09-24T11:05:50.626Z,26.02
2023-09-24T11:08:28.531Z,26.00
2023-09-24T11:10:57.073Z,25.96
2023-09-24T11:13:26.507Z,25.92
2023-09-24T11:15:55.350Z,25.86
2023-09-24T11:18:24.112Z,25.79
2023-09-24T11:20:53.876Z,25.78
2023-09-24T11:23:22.596Z,25.88
2023-09-24T11:25:52.484Z,25.99
2023-09-24T11:28:32.148Z,26.09
2023-09-24T11:31:01.216Z,26.07
2023-09-24T11:33:30.032Z,25.89
2023-09-24T11:35:59.079Z,25.84
2023-09-24T11:38:36.623Z,25.85
2023-09-24T11:41:10.693Z,25.85
2023-09-24T11:43:39.862Z,25.88
2023-09-24T11:46:23.755Z,25.87
2023-09-24T11:49:02.211Z,25.74
2023-09-24T11:51:31.868Z,25.62
2023-09-24T11:54:01.611Z,25.48
2023-09-24T11:56:33.124Z,25.37
2023-09-24T11:59:01.615Z,25.25
2023-09-24T12:01:32.792Z,25.13
2023-09-24T12:04:02.885Z,25.02
2023-09-24T12:06:32.481Z,24.91
2023-09-24T12:09:00.925Z,24.75
2023-09-24T12:11:29.386Z,24.71
2023-09-24T12:13:57.869Z,24.95
2023-09-24T12:16:26.397Z,25.26
2023-09-24T12:18:55.063Z,25.54
2023-09-24T12:21:23.684Z,25.81
2023-09-24T12:23:52.190Z,25.95
2023-09-24T12:26:20.782Z,26.00
2023-09-24T12:28:50.196Z,25.99
2023-09-24T12:31:19.072Z,26.16
2023-09-24T12:33:47.560Z,26.38
2023-09-24T12:36:16.299Z,26.40
2023-09-24T12:38:44.796Z,26.31
2023-09-24T12:41:13.341Z,26.20
2023-09-24T12:43:41.795Z,26.20
2023-09-24T12:46:10.643Z,26.31
2023-09-24T12:48:39.353Z,26.43
2023-09-24T12:51:10.739Z,26.41
2023-09-24T12:53:42.464Z,26.45
2023-09-24T12:56:11.248Z,26.59
2023-09-24T12:58:39.733Z,26.89
2023-09-24T13:01:08.480Z,27.18
2023-09-24T13:03:38.958Z,27.33
2023-09-24T13:06:20.343Z,27.44
2023-09-24T13:08:48.994Z,27.48
2023-09-24T13:11:18.847Z,27.53
2023-09-24T13:13:47.384Z,27.67
2023-09-24T13:16:15.780Z,27.78
2023-09-24T13:18:45.553Z,27.84
2023-09-24T13:21:14.131Z,27.94
2023-09-24T13:23:42.640Z,27.92
2023-09-24T13:26:11.122Z,27.70
2023-09-24T13:28:39.738Z,27.42
2023-09-24T13:31:08.346Z,27.19
2023-09-24T13:33:36.858Z,27.08
2023-09-24T13:36:05.737Z,27.03
2023-09-24T13:38:34.251Z,26.91
2023-09-24T13:41:03.066Z,26.76
2023-09-24T13:43:31.556Z,26.71
2023-09-24T13:46:00.495Z,26.68
2023-09-24T13:48:29.191Z,26.63
2023-09-24T13:50:58.051Z,26.60
2023-09-24T13:53:26.774Z,26.56
2023-09-24T13:55:55.410Z,26.52
2023-09-24T13:58:24.206Z,26.45
2023-09-24T14:00:55.371Z,26.36
2023-09-24T14:03:23.906Z,26.25
2023-09-24T14:05:59.276Z,26.10
2023-09-24T14:08:46.985Z,25.81
2023-09-24T14:11:44.784Z,25.36
2023-09-24T14:14:14.142Z,24.95
2023-09-24T14:16:45.059Z,24.72
2023-09-24T14:19:16.148Z,24.48
2023-09-24T14:21:44.859Z,24.28
2023-09-24T14:24:13.465Z,24.11
2023-09-24T14:26:44.147Z,23.91
2023-09-24T14:29:12.992Z,23.66
2023-09-24T14:31:41.472Z,23.36
2023-09-24T14:34:10.150Z,23.05
2023-09-24T14:36:39.096Z,22.70
2023-09-24T14:39:07.932Z,22.46
2023-09-24T14:41:36.999Z,22.25
2023-09-24T14:44:09.579Z,22.03
2023-09-24T14:46:40.146Z,21.81
2023-09-24T14:49:09.147Z,21.60
2023-09-24T14:51:37.652Z,21.43
2023-09-24T14:54:06.269Z,21.29
2023-09-24T14:56:34.810Z,21.14
2023-09-24T14:59:03.318Z,21.01
2023-09-24T15:01:33.415Z,20.91
2023-09-24T15:04:02.148Z,20.79
2023-09-24T15:06:30.787Z,20.72
2023-09-24T15:08:59.241Z,20.67
2023-09-24T15:11:27.833Z,20.58
2023-09-24T15:13:56.828Z,20.50
2023-09-24T15:16:25.287Z,20.41
2023-09-24T15:18:53.848Z,20.25
2023-09-24T15:21:23.079Z,20.12
2023-09-24T15:23:51.985Z,19.96
2023-09-24T15:26:20.735Z,19.77
2023-09-24T15:28:49.186Z,19.59
2023-09-24T15:31:18.570Z,19.44
2023-09-24T15:33:47.308Z,19.34
2023-09-24T15:36:18.307Z,19.27
2023-09-24T15:38:46.993Z,19.19
2023-09-24T15:41:15.604Z,19.11
2023-09-24T15:43:44.123Z,19.03
2023-09-24T15:49:54.540Z,18.68
2023-09-24T15:52:22.988Z,18.54
2023-09-24T15:54:51.425Z,18.42
2023-09-24T15:57:20.264Z,18.30
2023-09-24T15:59:49.433Z,18.23
2023-09-24T16:02:17.940Z,18.21
2023-09-24T16:04:46.441Z,18.15
2023-09-24T16:07:14.997Z,18.12
2023-09-24T16:09:43.420Z,18.12
2023-09-24T16:12:11.955Z,18.09
2023-09-24T16:14:40.669Z,18.09
2023-09-24T16:17:09.915Z,18.07
2023-09-24T16:19:38.556Z,18.03
2023-09-24T16:22:07.004Z,18.01
2023-09-24T16:24:35.491Z,17.97
2023-09-24T16:27:04.106Z,17.96
2023-09-24T16:29:32.541Z,17.94
2023-09-24T16:32:01.048Z,17.94
2023-09-24T16:34:29.877Z,17.94
2023-09-24T16:36:58.327Z,17.93
2023-09-24T16:39:26.751Z,17.93
2023-09-24T16:41:55.288Z,17.92
2023-09-24T16:44:24.073Z,17.90
2023-09-24T16:46:52.465Z,17.90
2023-09-24T16:49:20.912Z,17.92
2023-09-24T16:51:51.694Z,17.92
2023-09-24T16:54:21.359Z,17.93
2023-09-24T16:56:49.811Z,17.94
2023-09-24T16:59:18.291Z,17.95
2023-09-24T17:01:46.864Z,17.97
2023-09-24T17:04:15.579Z,17.94
2023-09-24T17:06:44.407Z,17.92
2023-09-24T17:09:12.895Z,17.87
2023-09-24T17:11:41.425Z,17.84
2023-09-24T17:14:10.087Z,17.83
2023-09-24T17:16:38.804Z,17.82
2023-09-24T17:19:07.269Z,17.81
2023-09-24T17:21:36.414Z,17.80
2023-09-24T17:24:05.297Z,17.80
2023-09-24T17:26:33.780Z,17.80
2023-09-24T17:29:02.196Z,17.82
2023-09-24T17:31:30.818Z,17.83
2023-09-24T17:33:59.442Z,17.84
2023-09-24T17:36:27.938Z,17.86
2023-09-24T17:38:56.460Z,17.87
2023-09-24T17:41:27.203Z,17.86
2023-09-24T17:43:55.644Z,17.81
2023-09-24T17:46:25.823Z,17.76
2023-09-24T17:48:54.995Z,17.71
2023-09-24T17:51:23.529Z,17.64
2023-09-24T17:53:52.118Z,17.57
2023-09-24T17:56:20.767Z,17.52
2023-09-24T17:58:50.359Z,17.48
2023-09-24T18:01:19.054Z,17.42
2023-09-24T18:03:47.709Z,17.42
2023-09-24T18:06:20.260Z,17.39
2023-09-24T18:08:49.366Z,17.35
2023-09-24T18:11:20.058Z,17.31
2023-09-24T18:13:48.720Z,17.28
2023-09-24T18:16:17.641Z,17.26
2023-09-24T18:18:48.296Z,17.24
2023-09-24T18:21:22.317Z,17.23
2023-09-24T18:23:52.898Z,17.24
2023-09-24T18:26:21.264Z,17.23
2023-09-24T18:28:49.770Z,17.20
2023-09-24T18:31:19.700Z,17.20
2023-09-24T18:33:50.231Z,17.19
2023-09-24T18:36:19.179Z,17.17
2023-09-24T18:38:47.798Z,17.13
2023-09-24T18:41:17.237Z,17.07
2023-09-24T18:43:48.950Z,17.01
2023-09-24T18:46:17.712Z,16.98
2023-09-24T18:48:47.074Z,16.94
2023-09-24T18:51:18.000Z,16.90
2023-09-24T18:53:46.578Z,16.84
2023-09-24T18:56:15.003Z,16.82
2023-09-24T18:58:43.454Z,16.78
2023-09-24T19:01:11.931Z,16.72
2023-09-24T19:03:40.709Z,16.68
2023-09-24T19:06:10.127Z,16.69
2023-09-24T19:08:38.664Z,16.64
2023-09-24T19:11:11.578Z,16.61
2023-09-24T19:13:41.817Z,16.56
2023-09-24T19:16:11.918Z,16.50
2023-09-24T19:18:41.025Z,16.43
2023-09-24T19:21:13.736Z,16.35
2023-09-24T19:23:42.544Z,16.30
2023-09-24T19:26:17.587Z,16.26
2023-09-24T19:28:46.418Z,16.23
2023-09-24T19:31:17.122Z,16.19
2023-09-24T19:33:46.937Z,16.16
2023-09-24T19:36:18.152Z,16.15
2023-09-24T19:38:50.559Z,16.14
2023-09-24T19:41:19.547Z,16.12
2023-09-24T19:43:50.459Z,16.13
2023-09-24T19:46:25.232Z,16.07
2023-09-24T19:48:54.328Z,16.05
2023-09-24T19:51:23.159Z,16.05
2023-09-24T19:53:52.138Z,15.99
2023-09-24T19:56:20.676Z,15.94
2023-09-24T19:58:49.279Z,15.90
2023-09-24T20:01:19.740Z,15.87
2023-09-24T20:03:48.538Z,15.84
2023-09-24T20:06:17.532Z,15.81
2023-09-24T20:08:50.057Z,15.79
2023-09-24T20:11:19.077Z,15.76
2023-09-24T20:13:52.949Z,15.75
2023-09-24T20:16:21.547Z,15.74
2023-09-24T20:18:50.527Z,15.73
2023-09-24T20:21:19.444Z,15.72
2023-09-24T20:23:47.958Z,15.71
2023-09-24T20:26:19.044Z,15.72
2023-09-24T20:28:53.290Z,15.70
2023-09-24T20:31:21.958Z,15.69
2023-09-24T20:36:23.735Z,15.71
2023-09-24T20:38:52.455Z,15.73
2023-09-24T20:41:20.944Z,15.75
2023-09-24T20:43:49.465Z,15.77
2023-09-24T20:46:20.841Z,15.81
2023-09-24T20:48:49.557Z,15.83
2023-09-24T20:51:20.621Z,15.85
2023-09-24T20:53:49.917Z,15.87
2023-09-24T20:56:19.062Z,15.90
2023-09-24T20:58:49.247Z,15.93
2023-09-24T21:01:19.700Z,15.97
2023-09-24T21:03:48.454Z,16.00
2023-09-24T21:06:16.970Z,16.04
2023-09-24T21:08:45.630Z,16.05
2023-09-24T21:11:14.235Z,16.05
2023-09-24T21:13:44.577Z,16.05
2023-09-24T21:16:13.050Z,16.03
2023-09-24T21:18:41.492Z,16.01
2023-09-24T21:21:10.021Z,16.00
2023-09-24T21:23:38.504Z,16.00
2023-09-24T21:26:07.457Z,15.99
2023-09-24T21:28:35.911Z,16.00
2023-09-24T21:31:09.329Z,16.00
2023-09-24T21:33:38.642Z,16.01
2023-09-24T21:36:08.312Z,16.02
2023-09-24T21:38:36.788Z,16.01
2023-09-24T21:41:05.613Z,16.02
2023-09-24T21:43:34.293Z,16.02
2023-09-24T21:46:04.590Z,16.02
2023-09-24T21:48:36.210Z,16.02
2023-09-24T21:51:10.309Z,16.04
2023-09-24T21:53:39.828Z,16.06
2023-09-24T21:56:08.244Z,16.06
2023-09-24T21:58:36.675Z,16.07
2023-09-24T22:01:19.485Z,16.07
2023-09-24T22:03:48.125Z,16.07
2023-09-24T22:06:19.521Z,16.08
2023-09-24T22:09:00.535Z,16.09
2023-09-24T22:11:38.177Z,16.10
2023-09-24T22:14:07.986Z,16.09
2023-09-24T22:16:38.683Z,16.07
2023-09-24T22:19:08.022Z,16.03
2023-09-24T22:21:36.552Z,16.01
2023-09-24T22:24:06.557Z,16.00
2023-09-24T22:26:34.982Z,15.96
2023-09-24T22:29:04.639Z,15.92
2023-09-24T22:31:33.122Z,15.85
2023-09-24T22:34:03.983Z,15.80
2023-09-24T22:36:32.474Z,15.75
2023-09-24T22:39:04.262Z,15.72
2023-09-24T22:41:48.201Z,15.68
2023-09-24T22:44:22.526Z,15.61
2023-09-24T22:46:50.912Z,15.54
2023-09-24T22:49:19.560Z,15.50
2023-09-24T22:51:47.986Z,15.49
2023-09-24T22:54:16.424Z,15.49
2023-09-24T22:56:45.100Z,15.49
2023-09-24T22:59:19.313Z,15.48
2023-09-24T23:01:51.984Z,15.45
2023-09-24T23:04:27.450Z,15.44
2023-09-24T23:06:58.968Z,15.42
2023-09-24T23:09:40.945Z,15.39
2023-09-24T23:12:12.041Z,15.35
2023-09-24T23:14:43.159Z,15.35
2023-09-24T23:17:12.350Z,15.34
2023-09-24T23:19:44.999Z,15.33
2023-09-24T23:22:17.969Z,15.35
2023-09-24T23:24:46.470Z,15.35
2023-09-24T23:27:20.112Z,15.34
2023-09-24T23:29:48.622Z,15.34
2023-09-24T23:32:32.573Z,15.35
2023-09-24T23:35:01.026Z,15.33
2023-09-24T23:37:29.470Z,15.33
2023-09-24T23:39:59.018Z,15.32
2023-09-24T23:42:28.791Z,15.33
2023-09-24T23:44:58.469Z,15.34
2023-09-24T23:47:27.375Z,15.35
2023-09-24T23:49:58.539Z,15.35
2023-09-24T23:52:28.841Z,15.34
2023-09-24T23:55:00.345Z,15.34
2023-09-24T23:57:34.853Z,15.33
